首页
METAR-TAF:

METAR-TAF

机场 :

杜布罗夫尼克机场

杜布羅夫尼克, 克罗地亚

纬度: 42-34N, 经度: 018-16E, 海拔: 157米

当前天气观测

该预报发布于30分钟前的22:30 UTC
风速10节,风向北转东北,在西北之间变化
温度 15°C
湿度 55%
气压 1014 hPa
能见度10公里或以上
1500米以下无云,无积雨云

METAR: LDDU 312230Z 02010KT 320V080 CAVOK 15/06 Q1014

时间: 01:00 (23:00 UTC)

预报

该预报发布于5小时和35分钟前的17:25 UTC
预报有效从31日的 18点(UTC)到 01日的 18点(UTC)
风速16节,风向北转东北
能见度10公里或以上
少量云层高于5000英尺
成为
从 01日的 08点(UTC)到 01日的 10点(UTC)
风速8节,风向西转西南
成为
从 01日的 13点(UTC)到 01日的 15点(UTC)
风速10节,风向西转西北
几率 30% :
短暂存在
从 01日的 13点(UTC)到 01日的 17点(UTC)
少量云层高于3000英尺, 塔状积云.
散云层高于3500英尺

TAF: LDDU 311725Z 3118/0118 02016KT 9999 FEW050 TX19/0113Z TN13/0104Z BECMG 0108/0110 24008KT BECMG 0113/0115 29010KT PROB30 TEMPO 0113/0117 FEW030TCU SCT035

超过4000个机场的气象观测和天气预报(METAR&TAF报告)。

可查询的气象台以黄色和红色小点在地图上表示。

将鼠标移到小点上方,可查看气象台名称。

然后点击查看天气观测和预报。

如需切换地图:点击带黑十字的绿色按钮放大地图;点击带横线的绿色按钮缩小地图;或者点击绿色箭头查看邻近地区的地图。


METAR-TAF: